Terminal Aerodrome Forecast
Issued by NWS Buffalo, NY

Home | Current Version | Previous Version | Text Only | Print | Product List | Glossary On
Versions: 1 2 3 4 5 6 7 8 9 10 11 12 13 14 15 16 17 18 19 20 21 22 23 24
836
FTUS41 KBUF 222101 AAA
TAFART
TAF AMD
KART 222101Z 2221/2318 VRB03KT P6SM BKN250
     FM222300 18004KT P6SM SCT250
     FM230500 17008KT P6SM SCT250
     FM231500 18012KT P6SM SCT250=

USA.gov is the U.S. government's official web portal to all federal, state and local government web resources and services.